sensor_id;sensor_type;location;lat;lon;timestamp;P1;durP1;ratioP1;P2;durP2;ratioP2
50585;SDS011;36542;51.700;8.846;2023-06-22T00:02:25;32.90;;;28.07;;
50585;SDS011;36542;51.700;8.846;2023-06-22T00:04:50;36.37;;;28.83;;
50585;SDS011;36542;51.700;8.846;2023-06-22T00:07:16;42.17;;;30.63;;
50585;SDS011;36542;51.700;8.846;2023-06-22T00:09:41;40.33;;;30.13;;
50585;SDS011;36542;51.700;8.846;2023-06-22T00:12:07;38.47;;;31.13;;
50585;SDS011;36542;51.700;8.846;2023-06-22T00:14:33;40.73;;;30.87;;
50585;SDS011;36542;51.700;8.846;2023-06-22T00:16:58;37.20;;;30.07;;
50585;SDS011;36542;51.700;8.846;2023-06-22T00:19:24;37.87;;;31.27;;
50585;SDS011;36542;51.700;8.846;2023-06-22T00:21:50;33.97;;;29.27;;
50585;SDS011;36542;51.700;8.846;2023-06-22T00:24:21;42.73;;;31.63;;
50585;SDS011;36542;51.700;8.846;2023-06-22T00:26:47;37.30;;;31.27;;
50585;SDS011;36542;51.700;8.846;2023-06-22T00:29:13;44.97;;;31.47;;
50585;SDS011;36542;51.700;8.846;2023-06-22T00:31:39;41.33;;;31.30;;
50585;SDS011;36542;51.700;8.846;2023-06-22T00:34:05;35.73;;;30.43;;
50585;SDS011;36542;51.700;8.846;2023-06-22T00:36:31;36.07;;;30.53;;
50585;SDS011;36542;51.700;8.846;2023-06-22T00:38:57;41.67;;;32.70;;
50585;SDS011;36542;51.700;8.846;2023-06-22T00:41:22;40.20;;;31.47;;
50585;SDS011;36542;51.700;8.846;2023-06-22T00:43:48;34.93;;;29.53;;
50585;SDS011;36542;51.700;8.846;2023-06-22T00:46:13;35.77;;;29.40;;
50585;SDS011;36542;51.700;8.846;2023-06-22T00:48:39;40.67;;;29.30;;
50585;SDS011;36542;51.700;8.846;2023-06-22T00:51:06;47.00;;;29.80;;
50585;SDS011;36542;51.700;8.846;2023-06-22T00:53:32;39.87;;;28.90;;
50585;SDS011;36542;51.700;8.846;2023-06-22T00:56:00;40.67;;;29.00;;
50585;SDS011;36542;51.700;8.846;2023-06-22T00:58:26;31.73;;;27.73;;
50585;SDS011;36542;51.700;8.846;2023-06-22T01:00:51;36.47;;;30.80;;
50585;SDS011;36542;51.700;8.846;2023-06-22T01:03:17;42.00;;;30.93;;
50585;SDS011;36542;51.700;8.846;2023-06-22T01:05:43;34.77;;;30.97;;
50585;SDS011;36542;51.700;8.846;2023-06-22T01:08:16;45.30;;;31.23;;
50585;SDS011;36542;51.700;8.846;2023-06-22T01:10:45;37.53;;;30.60;;
50585;SDS011;36542;51.700;8.846;2023-06-22T01:16:25;38.90;;;28.43;;
50585;SDS011;36542;51.700;8.846;2023-06-22T01:18:55;33.97;;;27.67;;
50585;SDS011;36542;51.700;8.846;2023-06-22T01:21:25;40.40;;;28.23;;
50585;SDS011;36542;51.700;8.846;2023-06-22T01:29:17;34.80;;;30.63;;
50585;SDS011;36542;51.700;8.846;2023-06-22T01:31:44;38.63;;;30.43;;
50585;SDS011;36542;51.700;8.846;2023-06-22T01:34:11;34.73;;;27.80;;
50585;SDS011;36542;51.700;8.846;2023-06-22T01:36:38;34.50;;;28.80;;
50585;SDS011;36542;51.700;8.846;2023-06-22T01:39:04;33.43;;;27.43;;
50585;SDS011;36542;51.700;8.846;2023-06-22T01:41:33;31.93;;;27.83;;
50585;SDS011;36542;51.700;8.846;2023-06-22T01:44:00;35.37;;;29.00;;
50585;SDS011;36542;51.700;8.846;2023-06-22T01:46:27;33.27;;;28.77;;
50585;SDS011;36542;51.700;8.846;2023-06-22T01:48:54;38.50;;;31.00;;
50585;SDS011;36542;51.700;8.846;2023-06-22T01:51:20;34.60;;;28.13;;
50585;SDS011;36542;51.700;8.846;2023-06-22T01:53:46;35.50;;;30.13;;
50585;SDS011;36542;51.700;8.846;2023-06-22T01:56:12;30.97;;;27.67;;
50585;SDS011;36542;51.700;8.846;2023-06-22T01:58:42;37.43;;;29.27;;
50585;SDS011;36542;51.700;8.846;2023-06-22T02:01:16;42.27;;;30.67;;
50585;SDS011;36542;51.700;8.846;2023-06-22T02:03:51;36.80;;;31.20;;
50585;SDS011;36542;51.700;8.846;2023-06-22T02:06:31;34.20;;;30.50;;
50585;SDS011;36542;51.700;8.846;2023-06-22T02:09:01;36.73;;;32.73;;
50585;SDS011;36542;51.700;8.846;2023-06-22T02:11:31;37.37;;;29.30;;
50585;SDS011;36542;51.700;8.846;2023-06-22T02:13:57;33.27;;;28.60;;
50585;SDS011;36542;51.700;8.846;2023-06-22T02:16:23;35.80;;;28.13;;
50585;SDS011;36542;51.700;8.846;2023-06-22T02:18:50;31.63;;;26.47;;
50585;SDS011;36542;51.700;8.846;2023-06-22T02:21:19;30.63;;;27.10;;
50585;SDS011;36542;51.700;8.846;2023-06-22T02:23:46;30.53;;;27.03;;
50585;SDS011;36542;51.700;8.846;2023-06-22T02:26:12;30.90;;;26.80;;
50585;SDS011;36542;51.700;8.846;2023-06-22T02:28:38;31.73;;;27.30;;
50585;SDS011;36542;51.700;8.846;2023-06-22T02:31:03;33.63;;;27.33;;
50585;SDS011;36542;51.700;8.846;2023-06-22T02:33:29;32.70;;;28.67;;
50585;SDS011;36542;51.700;8.846;2023-06-22T02:35:55;34.37;;;28.70;;
50585;SDS011;36542;51.700;8.846;2023-06-22T02:38:20;38.53;;;29.23;;
50585;SDS011;36542;51.700;8.846;2023-06-22T02:40:46;31.83;;;28.10;;
50585;SDS011;36542;51.700;8.846;2023-06-22T02:43:12;34.97;;;27.53;;
50585;SDS011;36542;51.700;8.846;2023-06-22T02:45:38;35.67;;;25.93;;
50585;SDS011;36542;51.700;8.846;2023-06-22T02:48:03;30.97;;;26.37;;
50585;SDS011;36542;51.700;8.846;2023-06-22T02:50:29;28.70;;;25.37;;
50585;SDS011;36542;51.700;8.846;2023-06-22T02:52:55;30.40;;;25.77;;
50585;SDS011;36542;51.700;8.846;2023-06-22T02:55:21;28.83;;;25.50;;
50585;SDS011;36542;51.700;8.846;2023-06-22T02:57:46;30.70;;;24.37;;
50585;SDS011;36542;51.700;8.846;2023-06-22T03:00:13;35.27;;;24.50;;
50585;SDS011;36542;51.700;8.846;2023-06-22T03:02:45;34.70;;;24.27;;
50585;SDS011;36542;51.700;8.846;2023-06-22T03:05:12;26.30;;;23.37;;
50585;SDS011;36542;51.700;8.846;2023-06-22T03:07:43;29.37;;;21.90;;
50585;SDS011;36542;51.700;8.846;2023-06-22T03:10:09;27.90;;;23.90;;
50585;SDS011;36542;51.700;8.846;2023-06-22T03:12:38;29.10;;;24.53;;
50585;SDS011;36542;51.700;8.846;2023-06-22T03:15:07;29.10;;;24.10;;
50585;SDS011;36542;51.700;8.846;2023-06-22T03:17:34;26.20;;;23.40;;
50585;SDS011;36542;51.700;8.846;2023-06-22T03:20:03;32.47;;;22.27;;
50585;SDS011;36542;51.700;8.846;2023-06-22T03:22:34;27.77;;;21.53;;
50585;SDS011;36542;51.700;8.846;2023-06-22T03:25:00;26.60;;;22.30;;
50585;SDS011;36542;51.700;8.846;2023-06-22T03:27:26;24.60;;;21.97;;
50585;SDS011;36542;51.700;8.846;2023-06-22T03:29:51;31.23;;;24.03;;
50585;SDS011;36542;51.700;8.846;2023-06-22T03:32:17;30.53;;;24.53;;
50585;SDS011;36542;51.700;8.846;2023-06-22T03:34:42;29.60;;;22.70;;
50585;SDS011;36542;51.700;8.846;2023-06-22T03:37:11;28.83;;;23.03;;
50585;SDS011;36542;51.700;8.846;2023-06-22T03:39:38;29.10;;;23.80;;
50585;SDS011;36542;51.700;8.846;2023-06-22T03:42:04;27.40;;;23.07;;
50585;SDS011;36542;51.700;8.846;2023-06-22T03:44:30;28.63;;;23.33;;
50585;SDS011;36542;51.700;8.846;2023-06-22T03:46:55;25.90;;;23.13;;
50585;SDS011;36542;51.700;8.846;2023-06-22T03:49:21;26.77;;;24.13;;
50585;SDS011;36542;51.700;8.846;2023-06-22T03:51:46;25.13;;;22.50;;
50585;SDS011;36542;51.700;8.846;2023-06-22T03:54:12;29.53;;;23.70;;
50585;SDS011;36542;51.700;8.846;2023-06-22T03:56:37;25.20;;;21.53;;
50585;SDS011;36542;51.700;8.846;2023-06-22T03:59:03;28.17;;;22.70;;
50585;SDS011;36542;51.700;8.846;2023-06-22T04:01:29;26.93;;;22.40;;
50585;SDS011;36542;51.700;8.846;2023-06-22T04:03:54;25.47;;;22.70;;
50585;SDS011;36542;51.700;8.846;2023-06-22T04:06:20;28.60;;;24.03;;
50585;SDS011;36542;51.700;8.846;2023-06-22T04:08:45;26.57;;;23.20;;
50585;SDS011;36542;51.700;8.846;2023-06-22T04:11:16;26.93;;;23.87;;
50585;SDS011;36542;51.700;8.846;2023-06-22T04:13:42;26.77;;;22.90;;
50585;SDS011;36542;51.700;8.846;2023-06-22T04:16:08;25.40;;;22.87;;
50585;SDS011;36542;51.700;8.846;2023-06-22T04:18:34;26.80;;;23.77;;
50585;SDS011;36542;51.700;8.846;2023-06-22T04:20:59;24.10;;;21.63;;
50585;SDS011;36542;51.700;8.846;2023-06-22T04:23:25;24.97;;;22.30;;
50585;SDS011;36542;51.700;8.846;2023-06-22T04:25:50;24.43;;;22.10;;
50585;SDS011;36542;51.700;8.846;2023-06-22T04:28:16;24.13;;;21.33;;
50585;SDS011;36542;51.700;8.846;2023-06-22T04:30:42;24.17;;;21.57;;
50585;SDS011;36542;51.700;8.846;2023-06-22T04:33:14;24.37;;;21.77;;
50585;SDS011;36542;51.700;8.846;2023-06-22T04:35:40;26.47;;;22.10;;
50585;SDS011;36542;51.700;8.846;2023-06-22T04:38:06;23.50;;;20.90;;
50585;SDS011;36542;51.700;8.846;2023-06-22T04:40:32;27.57;;;22.23;;
50585;SDS011;36542;51.700;8.846;2023-06-22T04:42:58;23.97;;;21.47;;
50585;SDS011;36542;51.700;8.846;2023-06-22T04:45:27;23.90;;;21.37;;
50585;SDS011;36542;51.700;8.846;2023-06-22T04:47:54;22.83;;;20.53;;
50585;SDS011;36542;51.700;8.846;2023-06-22T04:50:19;22.63;;;20.43;;
50585;SDS011;36542;51.700;8.846;2023-06-22T04:52:46;22.43;;;20.10;;
50585;SDS011;36542;51.700;8.846;2023-06-22T04:55:12;23.53;;;21.33;;
50585;SDS011;36542;51.700;8.846;2023-06-22T04:57:43;21.83;;;19.73;;
50585;SDS011;36542;51.700;8.846;2023-06-22T05:00:14;20.57;;;18.47;;
50585;SDS011;36542;51.700;8.846;2023-06-22T05:02:43;23.00;;;20.63;;
50585;SDS011;36542;51.700;8.846;2023-06-22T05:05:10;22.50;;;20.03;;
50585;SDS011;36542;51.700;8.846;2023-06-22T05:07:38;23.40;;;20.90;;
50585;SDS011;36542;51.700;8.846;2023-06-22T05:10:07;21.67;;;19.37;;
50585;SDS011;36542;51.700;8.846;2023-06-22T05:12:35;23.17;;;20.77;;
50585;SDS011;36542;51.700;8.846;2023-06-22T05:15:00;22.03;;;19.10;;
50585;SDS011;36542;51.700;8.846;2023-06-22T05:17:26;23.10;;;20.60;;
50585;SDS011;36542;51.700;8.846;2023-06-22T05:19:52;21.53;;;19.50;;
50585;SDS011;36542;51.700;8.846;2023-06-22T05:22:18;22.40;;;20.10;;
50585;SDS011;36542;51.700;8.846;2023-06-22T05:24:44;23.93;;;21.40;;
50585;SDS011;36542;51.700;8.846;2023-06-22T05:27:10;21.97;;;19.73;;
50585;SDS011;36542;51.700;8.846;2023-06-22T05:29:38;20.67;;;18.60;;
50585;SDS011;36542;51.700;8.846;2023-06-22T05:32:04;20.17;;;18.07;;
50585;SDS011;36542;51.700;8.846;2023-06-22T05:34:30;20.40;;;18.47;;
50585;SDS011;36542;51.700;8.846;2023-06-22T05:36:56;20.20;;;18.20;;
50585;SDS011;36542;51.700;8.846;2023-06-22T05:39:24;19.73;;;17.93;;
50585;SDS011;36542;51.700;8.846;2023-06-22T05:41:50;19.37;;;17.43;;
50585;SDS011;36542;51.700;8.846;2023-06-22T05:44:16;18.33;;;16.53;;
50585;SDS011;36542;51.700;8.846;2023-06-22T05:46:42;17.13;;;15.43;;
50585;SDS011;36542;51.700;8.846;2023-06-22T05:49:09;17.07;;;15.50;;
50585;SDS011;36542;51.700;8.846;2023-06-22T05:51:35;16.90;;;15.30;;
50585;SDS011;36542;51.700;8.846;2023-06-22T05:54:00;16.23;;;14.63;;
50585;SDS011;36542;51.700;8.846;2023-06-22T05:56:26;17.47;;;15.67;;
50585;SDS011;36542;51.700;8.846;2023-06-22T05:58:51;16.40;;;14.70;;
50585;SDS011;36542;51.700;8.846;2023-06-22T06:01:17;15.77;;;14.10;;
50585;SDS011;36542;51.700;8.846;2023-06-22T06:03:42;15.60;;;14.10;;
50585;SDS011;36542;51.700;8.846;2023-06-22T06:06:09;14.90;;;13.30;;
50585;SDS011;36542;51.700;8.846;2023-06-22T06:08:36;16.80;;;13.67;;
50585;SDS011;36542;51.700;8.846;2023-06-22T06:11:02;14.90;;;13.50;;
50585;SDS011;36542;51.700;8.846;2023-06-22T06:13:27;15.23;;;13.13;;
50585;SDS011;36542;51.700;8.846;2023-06-22T06:15:53;15.07;;;13.60;;
50585;SDS011;36542;51.700;8.846;2023-06-22T06:18:20;15.50;;;13.90;;
50585;SDS011;36542;51.700;8.846;2023-06-22T06:20:46;15.47;;;13.87;;
50585;SDS011;36542;51.700;8.846;2023-06-22T06:23:11;14.53;;;13.03;;
50585;SDS011;36542;51.700;8.846;2023-06-22T06:25:37;13.30;;;12.00;;
50585;SDS011;36542;51.700;8.846;2023-06-22T06:28:02;13.73;;;12.30;;
50585;SDS011;36542;51.700;8.846;2023-06-22T06:30:28;13.73;;;12.23;;
50585;SDS011;36542;51.700;8.846;2023-06-22T06:32:54;18.30;;;14.13;;
50585;SDS011;36542;51.700;8.846;2023-06-22T06:35:19;15.07;;;13.63;;
50585;SDS011;36542;51.700;8.846;2023-06-22T06:37:47;15.77;;;14.27;;
50585;SDS011;36542;51.700;8.846;2023-06-22T06:40:14;16.80;;;15.20;;
50585;SDS011;36542;51.700;8.846;2023-06-22T06:42:41;17.87;;;16.13;;
50585;SDS011;36542;51.700;8.846;2023-06-22T06:45:10;19.43;;;17.33;;
50585;SDS011;36542;51.700;8.846;2023-06-22T06:47:37;18.97;;;17.07;;
50585;SDS011;36542;51.700;8.846;2023-06-22T06:50:03;22.60;;;20.13;;
50585;SDS011;36542;51.700;8.846;2023-06-22T06:52:30;23.50;;;21.10;;
50585;SDS011;36542;51.700;8.846;2023-06-22T06:54:55;22.23;;;19.93;;
50585;SDS011;36542;51.700;8.846;2023-06-22T06:57:21;22.70;;;20.43;;
50585;SDS011;36542;51.700;8.846;2023-06-22T06:59:47;22.33;;;20.03;;
50585;SDS011;36542;51.700;8.846;2023-06-22T07:02:14;21.40;;;19.33;;
50585;SDS011;36542;51.700;8.846;2023-06-22T07:04:40;20.93;;;18.93;;
50585;SDS011;36542;51.700;8.846;2023-06-22T07:07:06;19.07;;;17.27;;
50585;SDS011;36542;51.700;8.846;2023-06-22T07:09:32;20.03;;;18.07;;
50585;SDS011;36542;51.700;8.846;2023-06-22T07:11:57;19.70;;;17.60;;
50585;SDS011;36542;51.700;8.846;2023-06-22T07:14:23;19.47;;;17.50;;
50585;SDS011;36542;51.700;8.846;2023-06-22T07:16:48;19.90;;;15.63;;
50585;SDS011;36542;51.700;8.846;2023-06-22T07:19:14;15.73;;;14.13;;
50585;SDS011;36542;51.700;8.846;2023-06-22T07:21:40;17.20;;;15.50;;
50585;SDS011;36542;51.700;8.846;2023-06-22T07:24:06;17.17;;;15.47;;
50585;SDS011;36542;51.700;8.846;2023-06-22T07:26:32;18.00;;;16.20;;
50585;SDS011;36542;51.700;8.846;2023-06-22T07:28:58;18.87;;;16.97;;
50585;SDS011;36542;51.700;8.846;2023-06-22T07:31:26;18.60;;;16.60;;
50585;SDS011;36542;51.700;8.846;2023-06-22T07:33:52;18.57;;;16.87;;
50585;SDS011;36542;51.700;8.846;2023-06-22T07:36:17;18.37;;;16.57;;
50585;SDS011;36542;51.700;8.846;2023-06-22T07:38:43;18.00;;;16.30;;
50585;SDS011;36542;51.700;8.846;2023-06-22T07:41:09;17.30;;;15.63;;
50585;SDS011;36542;51.700;8.846;2023-06-22T07:43:35;17.60;;;16.00;;
50585;SDS011;36542;51.700;8.846;2023-06-22T07:46:02;17.03;;;15.53;;
50585;SDS011;36542;51.700;8.846;2023-06-22T07:48:28;17.60;;;15.80;;
50585;SDS011;36542;51.700;8.846;2023-06-22T07:50:54;16.00;;;14.50;;
50585;SDS011;36542;51.700;8.846;2023-06-22T07:53:20;17.30;;;15.23;;
50585;SDS011;36542;51.700;8.846;2023-06-22T07:55:46;17.50;;;15.67;;
50585;SDS011;36542;51.700;8.846;2023-06-22T07:58:12;15.10;;;13.70;;
50585;SDS011;36542;51.700;8.846;2023-06-22T08:00:38;17.87;;;16.17;;
50585;SDS011;36542;51.700;8.846;2023-06-22T08:03:03;18.10;;;16.30;;
50585;SDS011;36542;51.700;8.846;2023-06-22T08:05:30;17.20;;;15.37;;
50585;SDS011;36542;51.700;8.846;2023-06-22T08:07:55;17.30;;;15.60;;
50585;SDS011;36542;51.700;8.846;2023-06-22T08:10:21;17.27;;;15.67;;
50585;SDS011;36542;51.700;8.846;2023-06-22T08:12:47;19.00;;;17.20;;
50585;SDS011;36542;51.700;8.846;2023-06-22T08:15:12;17.47;;;15.80;;
50585;SDS011;36542;51.700;8.846;2023-06-22T08:17:38;15.48;;;14.07;;
50585;SDS011;36542;51.700;8.846;2023-06-22T08:20:04;14.45;;;13.15;;
50585;SDS011;36542;51.700;8.846;2023-06-22T08:22:34;13.35;;;11.57;;
50585;SDS011;36542;51.700;8.846;2023-06-22T08:25:01;12.50;;;11.23;;
50585;SDS011;36542;51.700;8.846;2023-06-22T08:27:29;10.85;;;9.85;;
50585;SDS011;36542;51.700;8.846;2023-06-22T08:29:58;9.85;;;8.77;;
50585;SDS011;36542;51.700;8.846;2023-06-22T08:32:25;10.50;;;8.68;;
50585;SDS011;36542;51.700;8.846;2023-06-22T08:34:55;9.02;;;8.23;;
50585;SDS011;36542;51.700;8.846;2023-06-22T08:37:21;9.88;;;8.98;;
50585;SDS011;36542;51.700;8.846;2023-06-22T08:39:56;9.43;;;8.48;;
50585;SDS011;36542;51.700;8.846;2023-06-22T08:42:22;9.77;;;8.73;;
50585;SDS011;36542;51.700;8.846;2023-06-22T08:44:49;9.18;;;8.27;;
50585;SDS011;36542;51.700;8.846;2023-06-22T08:47:15;9.73;;;8.73;;
50585;SDS011;36542;51.700;8.846;2023-06-22T08:49:40;8.93;;;8.13;;
50585;SDS011;36542;51.700;8.846;2023-06-22T08:52:06;8.77;;;7.97;;
50585;SDS011;36542;51.700;8.846;2023-06-22T08:54:32;8.68;;;7.97;;
50585;SDS011;36542;51.700;8.846;2023-06-22T08:56:59;8.82;;;8.02;;
50585;SDS011;36542;51.700;8.846;2023-06-22T08:59:25;9.05;;;8.20;;
50585;SDS011;36542;51.700;8.846;2023-06-22T09:01:51;7.90;;;7.10;;
50585;SDS011;36542;51.700;8.846;2023-06-22T09:04:16;8.25;;;7.55;;
50585;SDS011;36542;51.700;8.846;2023-06-22T09:06:42;8.43;;;7.60;;
50585;SDS011;36542;51.700;8.846;2023-06-22T09:09:12;7.82;;;7.18;;
50585;SDS011;36542;51.700;8.846;2023-06-22T09:11:37;8.52;;;7.72;;
50585;SDS011;36542;51.700;8.846;2023-06-22T09:14:03;9.65;;;8.80;;
50585;SDS011;36542;51.700;8.846;2023-06-22T09:16:29;7.82;;;7.22;;
50585;SDS011;36542;51.700;8.846;2023-06-22T09:18:55;9.80;;;8.10;;
50585;SDS011;36542;51.700;8.846;2023-06-22T09:21:20;8.07;;;7.38;;
50585;SDS011;36542;51.700;8.846;2023-06-22T09:23:46;9.00;;;8.18;;
50585;SDS011;36542;51.700;8.846;2023-06-22T09:26:15;9.27;;;8.35;;
50585;SDS011;36542;51.700;8.846;2023-06-22T09:28:40;8.60;;;7.80;;
50585;SDS011;36542;51.700;8.846;2023-06-22T09:31:06;9.40;;;8.45;;
50585;SDS011;36542;51.700;8.846;2023-06-22T09:33:32;9.20;;;8.30;;
50585;SDS011;36542;51.700;8.846;2023-06-22T09:35:57;8.55;;;7.85;;
50585;SDS011;36542;51.700;8.846;2023-06-22T09:38:23;10.07;;;9.18;;
50585;SDS011;36542;51.700;8.846;2023-06-22T09:40:48;10.38;;;8.93;;
50585;SDS011;36542;51.700;8.846;2023-06-22T09:43:14;9.30;;;8.43;;
50585;SDS011;36542;51.700;8.846;2023-06-22T09:45:39;10.80;;;9.80;;
50585;SDS011;36542;51.700;8.846;2023-06-22T09:48:05;10.18;;;9.32;;
50585;SDS011;36542;51.700;8.846;2023-06-22T09:50:30;10.20;;;9.25;;
50585;SDS011;36542;51.700;8.846;2023-06-22T09:52:56;10.13;;;9.32;;
50585;SDS011;36542;51.700;8.846;2023-06-22T09:55:22;10.95;;;9.25;;
50585;SDS011;36542;51.700;8.846;2023-06-22T09:57:47;10.35;;;9.27;;
50585;SDS011;36542;51.700;8.846;2023-06-22T10:00:13;10.10;;;8.40;;
50585;SDS011;36542;51.700;8.846;2023-06-22T10:02:43;9.48;;;8.55;;
50585;SDS011;36542;51.700;8.846;2023-06-22T10:05:09;11.30;;;9.25;;
50585;SDS011;36542;51.700;8.846;2023-06-22T10:07:35;9.57;;;8.80;;
50585;SDS011;36542;51.700;8.846;2023-06-22T10:10:05;11.00;;;10.00;;
50585;SDS011;36542;51.700;8.846;2023-06-22T10:12:31;9.48;;;8.57;;
50585;SDS011;36542;51.700;8.846;2023-06-22T10:14:57;11.23;;;10.23;;
50585;SDS011;36542;51.700;8.846;2023-06-22T10:17:22;9.60;;;8.73;;
50585;SDS011;36542;51.700;8.846;2023-06-22T10:19:48;11.57;;;10.55;;
50585;SDS011;36542;51.700;8.846;2023-06-22T10:22:13;10.73;;;9.82;;
50585;SDS011;36542;51.700;8.846;2023-06-22T10:24:39;11.02;;;10.02;;
50585;SDS011;36542;51.700;8.846;2023-06-22T10:27:09;11.13;;;10.13;;
50585;SDS011;36542;51.700;8.846;2023-06-22T10:29:35;10.43;;;9.52;;
50585;SDS011;36542;51.700;8.846;2023-06-22T10:32:01;10.90;;;9.90;;
50585;SDS011;36542;51.700;8.846;2023-06-22T10:34:27;9.90;;;8.90;;
50585;SDS011;36542;51.700;8.846;2023-06-22T10:36:52;10.15;;;9.32;;
50585;SDS011;36542;51.700;8.846;2023-06-22T10:39:18;11.57;;;10.52;;
50585;SDS011;36542;51.700;8.846;2023-06-22T10:41:43;11.68;;;10.57;;
50585;SDS011;36542;51.700;8.846;2023-06-22T10:44:09;11.85;;;10.75;;
50585;SDS011;36542;51.700;8.846;2023-06-22T10:46:35;11.73;;;10.60;;
50585;SDS011;36542;51.700;8.846;2023-06-22T10:49:00;12.35;;;11.15;;
50585;SDS011;36542;51.700;8.846;2023-06-22T10:51:26;11.07;;;10.07;;
50585;SDS011;36542;51.700;8.846;2023-06-22T10:53:53;12.52;;;11.27;;
50585;SDS011;36542;51.700;8.846;2023-06-22T10:56:18;13.25;;;12.05;;
50585;SDS011;36542;51.700;8.846;2023-06-22T10:58:44;13.77;;;12.40;;
50585;SDS011;36542;51.700;8.846;2023-06-22T11:01:10;12.65;;;11.52;;
50585;SDS011;36542;51.700;8.846;2023-06-22T11:03:36;12.18;;;11.07;;
50585;SDS011;36542;51.700;8.846;2023-06-22T11:06:02;11.77;;;10.68;;
50585;SDS011;36542;51.700;8.846;2023-06-22T11:08:27;13.15;;;11.88;;
50585;SDS011;36542;51.700;8.846;2023-06-22T11:10:53;12.98;;;11.70;;
50585;SDS011;36542;51.700;8.846;2023-06-22T11:13:18;12.90;;;11.60;;
50585;SDS011;36542;51.700;8.846;2023-06-22T11:15:44;11.63;;;10.52;;
50585;SDS011;36542;51.700;8.846;2023-06-22T11:18:09;11.85;;;10.68;;
50585;SDS011;36542;51.700;8.846;2023-06-22T11:20:35;11.48;;;10.40;;
50585;SDS011;36542;51.700;8.846;2023-06-22T11:23:04;11.65;;;10.52;;
50585;SDS011;36542;51.700;8.846;2023-06-22T11:25:31;11.85;;;10.63;;
50585;SDS011;36542;51.700;8.846;2023-06-22T11:27:56;12.18;;;11.07;;
50585;SDS011;36542;51.700;8.846;2023-06-22T11:30:22;12.80;;;11.68;;
50585;SDS011;36542;51.700;8.846;2023-06-22T11:32:48;12.45;;;11.23;;
50585;SDS011;36542;51.700;8.846;2023-06-22T11:35:13;13.02;;;11.77;;
50585;SDS011;36542;51.700;8.846;2023-06-22T11:37:39;13.40;;;11.93;;
50585;SDS011;36542;51.700;8.846;2023-06-22T11:40:05;12.20;;;10.93;;
50585;SDS011;36542;51.700;8.846;2023-06-22T11:42:34;12.63;;;11.52;;
50585;SDS011;36542;51.700;8.846;2023-06-22T11:44:59;13.18;;;11.95;;
50585;SDS011;36542;51.700;8.846;2023-06-22T11:47:25;13.32;;;12.13;;
50585;SDS011;36542;51.700;8.846;2023-06-22T11:49:50;13.40;;;12.15;;
50585;SDS011;36542;51.700;8.846;2023-06-22T11:52:16;13.52;;;12.20;;
50585;SDS011;36542;51.700;8.846;2023-06-22T11:54:42;14.82;;;13.13;;
50585;SDS011;36542;51.700;8.846;2023-06-22T11:57:08;12.90;;;11.57;;
50585;SDS011;36542;51.700;8.846;2023-06-22T11:59:34;13.70;;;12.30;;
50585;SDS011;36542;51.700;8.846;2023-06-22T12:01:59;12.70;;;11.38;;
50585;SDS011;36542;51.700;8.846;2023-06-22T12:04:25;13.05;;;11.88;;
50585;SDS011;36542;51.700;8.846;2023-06-22T12:06:50;13.50;;;12.18;;
50585;SDS011;36542;51.700;8.846;2023-06-22T12:09:16;13.60;;;12.35;;
50585;SDS011;36542;51.700;8.846;2023-06-22T12:11:42;14.05;;;12.88;;
50585;SDS011;36542;51.700;8.846;2023-06-22T12:14:08;13.65;;;12.35;;
50585;SDS011;36542;51.700;8.846;2023-06-22T12:16:33;13.88;;;12.57;;
50585;SDS011;36542;51.700;8.846;2023-06-22T12:18:59;14.77;;;13.25;;
50585;SDS011;36542;51.700;8.846;2023-06-22T12:21:24;14.05;;;12.55;;
50585;SDS011;36542;51.700;8.846;2023-06-22T12:23:50;12.48;;;11.27;;
50585;SDS011;36542;51.700;8.846;2023-06-22T12:26:15;14.88;;;13.38;;
50585;SDS011;36542;51.700;8.846;2023-06-22T12:28:41;14.45;;;12.70;;
50585;SDS011;36542;51.700;8.846;2023-06-22T12:31:07;14.25;;;12.93;;
50585;SDS011;36542;51.700;8.846;2023-06-22T12:33:32;14.07;;;12.73;;
50585;SDS011;36542;51.700;8.846;2023-06-22T12:35:58;14.00;;;12.65;;
50585;SDS011;36542;51.700;8.846;2023-06-22T12:38:23;15.25;;;13.73;;
50585;SDS011;36542;51.700;8.846;2023-06-22T12:40:51;17.90;;;14.63;;
50585;SDS011;36542;51.700;8.846;2023-06-22T12:43:17;17.23;;;15.45;;
50585;SDS011;36542;51.700;8.846;2023-06-22T12:45:43;18.33;;;16.55;;
50585;SDS011;36542;51.700;8.846;2023-06-22T12:48:08;17.52;;;15.93;;
50585;SDS011;36542;51.700;8.846;2023-06-22T12:50:34;17.73;;;16.02;;
50585;SDS011;36542;51.700;8.846;2023-06-22T12:53:00;18.13;;;16.45;;
50585;SDS011;36542;51.700;8.846;2023-06-22T12:55:27;18.88;;;16.95;;
50585;SDS011;36542;51.700;8.846;2023-06-22T12:57:52;21.70;;;19.33;;
50585;SDS011;36542;51.700;8.846;2023-06-22T13:00:18;25.33;;;21.88;;
50585;SDS011;36542;51.700;8.846;2023-06-22T13:02:44;24.60;;;22.23;;
50585;SDS011;36542;51.700;8.846;2023-06-22T13:05:10;24.67;;;22.20;;
50585;SDS011;36542;51.700;8.846;2023-06-22T13:07:36;22.85;;;20.65;;
50585;SDS011;36542;51.700;8.846;2023-06-22T13:10:01;23.67;;;21.38;;
50585;SDS011;36542;51.700;8.846;2023-06-22T13:12:27;25.70;;;22.92;;
50585;SDS011;36542;51.700;8.846;2023-06-22T13:14:53;27.10;;;22.20;;
50585;SDS011;36542;51.700;8.846;2023-06-22T13:17:18;28.52;;;23.88;;
50585;SDS011;36542;51.700;8.846;2023-06-22T13:19:44;25.65;;;23.00;;
50585;SDS011;36542;51.700;8.846;2023-06-22T13:24:58;25.73;;;23.05;;
50585;SDS011;36542;51.700;8.846;2023-06-22T13:27:24;25.30;;;22.70;;
50585;SDS011;36542;51.700;8.846;2023-06-22T13:29:50;24.67;;;22.27;;
50585;SDS011;36542;51.700;8.846;2023-06-22T13:32:16;28.20;;;25.30;;
50585;SDS011;36542;51.700;8.846;2023-06-22T13:34:42;27.33;;;24.73;;
50585;SDS011;36542;51.700;8.846;2023-06-22T13:37:07;28.02;;;25.15;;
50585;SDS011;36542;51.700;8.846;2023-06-22T13:39:33;30.50;;;27.40;;
50585;SDS011;36542;51.700;8.846;2023-06-22T13:41:58;31.20;;;27.95;;
50585;SDS011;36542;51.700;8.846;2023-06-22T13:44:24;39.97;;;32.08;;
50585;SDS011;36542;51.700;8.846;2023-06-22T13:46:53;40.53;;;34.45;;
50585;SDS011;36542;51.700;8.846;2023-06-22T13:49:21;44.03;;;39.38;;
50585;SDS011;36542;51.700;8.846;2023-06-22T13:51:47;45.92;;;39.80;;
50585;SDS011;36542;51.700;8.846;2023-06-22T13:54:14;39.35;;;35.05;;
50585;SDS011;36542;51.700;8.846;2023-06-22T13:56:39;42.65;;;37.97;;
50585;SDS011;36542;51.700;8.846;2023-06-22T13:59:05;43.35;;;38.25;;
50585;SDS011;36542;51.700;8.846;2023-06-22T14:01:34;45.20;;;37.10;;
50585;SDS011;36542;51.700;8.846;2023-06-22T14:04:00;43.20;;;35.97;;
50585;SDS011;36542;51.700;8.846;2023-06-22T14:06:27;50.63;;;42.13;;
50585;SDS011;36542;51.700;8.846;2023-06-22T14:08:52;53.27;;;45.43;;
50585;SDS011;36542;51.700;8.846;2023-06-22T14:11:18;53.20;;;45.13;;
50585;SDS011;36542;51.700;8.846;2023-06-22T14:13:43;62.03;;;48.00;;
50585;SDS011;36542;51.700;8.846;2023-06-22T14:16:09;63.13;;;49.97;;
50585;SDS011;36542;51.700;8.846;2023-06-22T14:18:34;62.73;;;51.80;;
50585;SDS011;36542;51.700;8.846;2023-06-22T14:21:00;60.73;;;49.63;;
50585;SDS011;36542;51.700;8.846;2023-06-22T14:23:27;62.60;;;50.40;;
50585;SDS011;36542;51.700;8.846;2023-06-22T14:25:53;52.30;;;44.90;;
50585;SDS011;36542;51.700;8.846;2023-06-22T14:28:18;47.23;;;38.87;;
50585;SDS011;36542;51.700;8.846;2023-06-22T14:30:44;48.07;;;40.87;;